createdAt,value
2022-09-09T00:04:26.665Z,99665.56
2022-09-09T00:09:29.787Z,99656.41
2022-09-09T00:14:45.725Z,99661.56
2022-09-09T00:20:02.285Z,99659.09
2022-09-09T00:25:20.132Z,99655.72
2022-09-09T00:30:25.216Z,99653.47
2022-09-09T00:35:40.744Z,99655.28
2022-09-09T00:41:17.016Z,99651.94
2022-09-09T00:46:47.898Z,99658.97
2022-09-09T00:52:02.470Z,99662.47
2022-09-09T00:57:33.058Z,99673.47
2022-09-09T01:02:55.282Z,99681.91
2022-09-09T01:07:59.491Z,99677.56
2022-09-09T01:13:06.680Z,99690.28
2022-09-09T01:18:18.506Z,99699.00
2022-09-09T01:23:41.759Z,99713.38
2022-09-09T01:28:59.749Z,99714.31
2022-09-09T01:34:13.875Z,99721.09
2022-09-09T01:39:16.593Z,99708.75
2022-09-09T01:44:20.609Z,99712.13
2022-09-09T01:49:22.823Z,99714.59
2022-09-09T01:54:28.937Z,99718.78
2022-09-09T01:59:39.084Z,99728.91
2022-09-09T02:04:43.164Z,99730.63
2022-09-09T02:09:58.713Z,99722.25
2022-09-09T02:15:06.265Z,99718.97
2022-09-09T02:20:20.499Z,99718.97
2022-09-09T02:25:34.648Z,99713.09
2022-09-09T02:30:56.200Z,99712.22
2022-09-09T02:36:07.687Z,99714.75
2022-09-09T02:41:11.192Z,99725.72
2022-09-09T02:46:26.388Z,99720.66
2022-09-09T02:51:44.448Z,99727.41
2022-09-09T02:56:52.856Z,99740.13
2022-09-09T03:01:56.438Z,99741.81
2022-09-09T03:07:00.157Z,99734.19
2022-09-09T03:12:02.007Z,99735.88
2022-09-09T03:17:10.230Z,99726.63
2022-09-09T03:22:19.096Z,99722.56
2022-09-09T03:27:22.025Z,99727.63
2022-09-09T03:32:24.376Z,99728.38
2022-09-09T03:37:26.137Z,99710.63
2022-09-09T03:42:28.696Z,99708.06
2022-09-09T03:47:32.245Z,99704.72
2022-09-09T03:52:41.883Z,99714.84
2022-09-09T03:57:48.895Z,99724.16
2022-09-09T04:02:51.065Z,99715.69
2022-09-09T04:07:53.347Z,99734.22
2022-09-09T04:12:56.088Z,99725.78
2022-09-09T04:17:58.028Z,99740.94
2022-09-09T04:22:59.735Z,99746.00
2022-09-09T04:28:01.945Z,99749.47
2022-09-09T04:33:04.873Z,99747.81
2022-09-09T04:38:10.383Z,99754.56
2022-09-09T04:43:14.434Z,99752.91
2022-09-09T04:48:18.745Z,99760.47
2022-09-09T04:53:20.764Z,99774.81
2022-09-09T04:58:23.520Z,99771.47
2022-09-09T05:03:25.713Z,99773.97
2022-09-09T05:08:27.768Z,99766.34
2022-09-09T05:13:29.988Z,99778.91
2022-09-09T05:18:31.998Z,99775.41
2022-09-09T05:23:36.244Z,99768.56
2022-09-09T05:28:37.989Z,99770.97
2022-09-09T05:33:41.759Z,99780.94
2022-09-09T05:38:44.940Z,99776.66
2022-09-09T05:43:48.556Z,99780.59
2022-09-09T05:48:52.453Z,99778.81
2022-09-09T05:53:56.209Z,99776.84
2022-09-09T05:59:01.035Z,99783.28
2022-09-09T06:04:04.785Z,99779.78
2022-09-09T06:09:11.231Z,99777.88
2022-09-09T06:14:15.557Z,99760.44
2022-09-09T06:19:21.565Z,99760.91
2022-09-09T06:24:24.671Z,99758.09
2022-09-09T06:29:26.433Z,99766.13
2022-09-09T06:34:29.389Z,99766.59
2022-09-09T06:39:35.069Z,99770.63
2022-09-09T06:44:37.485Z,99770.97
2022-09-09T06:49:48.204Z,99772.00
2022-09-09T06:54:50.905Z,99784.94
2022-09-09T06:59:52.924Z,99777.06
2022-09-09T07:04:55.480Z,99769.72
2022-09-09T07:09:58.080Z,99767.81
2022-09-09T07:14:59.978Z,99770.56
2022-09-09T07:20:03.789Z,99765.56
2022-09-09T07:25:06.576Z,99762.66
2022-09-09T07:30:09.498Z,99765.03
2022-09-09T07:35:11.433Z,99781.22
2022-09-09T07:40:13.272Z,99773.66
2022-09-09T07:45:15.524Z,99777.84
2022-09-09T07:50:17.225Z,99774.59
2022-09-09T07:55:20.554Z,99763.31
2022-09-09T08:00:23.136Z,99759.63
2022-09-09T08:05:29.433Z,99768.75
2022-09-09T08:10:31.467Z,99767.28
2022-09-09T08:15:35.532Z,99768.63
2022-09-09T08:26:22.448Z,99784.31
2022-09-09T08:33:28.912Z,99780.47
2022-09-09T08:38:30.936Z,99779.78
2022-09-09T08:43:34.507Z,99783.75
2022-09-09T08:48:53.341Z,99778.16
2022-09-09T08:53:59.886Z,99777.03
2022-09-09T08:59:04.180Z,99762.03
2022-09-09T09:04:39.175Z,99764.88
2022-09-09T09:09:52.865Z,99762.84
2022-09-09T09:14:56.516Z,99767.44
2022-09-09T09:20:00.617Z,99757.59
2022-09-09T09:25:09.261Z,99747.66
2022-09-09T09:30:30.006Z,99753.41
2022-09-09T09:35:41.990Z,99743.97
2022-09-09T09:40:59.046Z,99737.78
2022-09-09T09:46:17.658Z,99732.31
2022-09-09T09:51:23.521Z,99728.59
2022-09-09T09:56:30.106Z,99721.81
2022-09-09T10:01:35.330Z,99712.97
2022-09-09T10:06:41.713Z,99700.22
2022-09-09T10:12:07.893Z,99697.06
2022-09-09T10:17:24.788Z,99698.63
2022-09-09T10:22:35.486Z,99692.34
2022-09-09T10:27:58.914Z,99706.69
2022-09-09T10:33:20.588Z,99697.56
2022-09-09T10:38:42.247Z,99696.84
2022-09-09T10:44:25.481Z,99695.66
2022-09-09T10:49:50.776Z,99705.63
2022-09-09T10:55:03.302Z,99697.88
2022-09-09T11:00:15.474Z,99691.31
2022-09-09T11:05:21.626Z,99692.09
2022-09-09T11:10:31.396Z,99677.44
2022-09-09T11:15:42.506Z,99677.72
2022-09-09T11:20:48.480Z,99673.75
2022-09-09T11:25:57.949Z,99674.75
2022-09-09T11:31:11.630Z,99668.81
2022-09-09T11:36:31.268Z,99668.19
2022-09-09T11:41:38.203Z,99663.50
2022-09-09T11:46:42.477Z,99667.84
2022-09-09T11:51:44.088Z,99660.19
2022-09-09T11:56:46.681Z,99663.69
2022-09-09T12:01:58.131Z,99663.59
2022-09-09T12:07:23.532Z,99667.09
2022-09-09T12:12:25.452Z,99650.75
2022-09-09T12:17:32.635Z,99640.47
2022-09-09T12:22:46.374Z,99633.38
2022-09-09T12:28:16.932Z,99627.47
2022-09-09T12:33:20.316Z,99616.44
2022-09-09T12:38:42.218Z,99611.59
2022-09-09T12:43:43.804Z,99620.81
2022-09-09T12:48:46.791Z,99612.50
2022-09-09T12:53:48.701Z,99604.91
2022-09-09T12:58:52.933Z,99596.75
2022-09-09T13:03:55.581Z,99574.81
2022-09-09T13:09:00.177Z,99574.38
2022-09-09T13:14:02.269Z,99564.38
2022-09-09T13:19:14.932Z,99556.81
2022-09-09T13:24:23.033Z,99565.22
2022-09-09T13:29:25.256Z,99575.06
2022-09-09T13:34:32.456Z,99565.97
2022-09-09T13:39:38.522Z,99569.22
2022-09-09T13:44:42.734Z,99559.69
2022-09-09T13:49:44.362Z,99556.53
2022-09-09T13:54:50.514Z,99557.56
2022-09-09T14:00:11.011Z,99553.16
2022-09-09T14:05:12.872Z,99537.59
2022-09-09T14:10:14.537Z,99544.47
2022-09-09T14:15:16.278Z,99551.94
2022-09-09T14:20:18.637Z,99553.63
2022-09-09T14:25:20.310Z,99548.03
2022-09-09T14:30:21.888Z,99560.88
2022-09-09T14:35:23.692Z,99553.22
2022-09-09T14:40:25.540Z,99562.78
2022-09-09T14:45:27.668Z,99565.06
2022-09-09T14:50:30.320Z,99562.47
2022-09-09T14:55:32.388Z,99559.28
2022-09-09T15:00:34.078Z,99550.53
2022-09-09T15:05:37.259Z,99555.69
2022-09-09T15:10:40.052Z,99559.22
2022-09-09T15:15:42.582Z,99558.16
2022-09-09T15:20:47.395Z,99554.00
2022-09-09T15:25:56.834Z,99550.25
2022-09-09T15:30:59.068Z,99548.56
2022-09-09T15:36:00.993Z,99534.91
2022-09-09T15:41:02.593Z,99533.25
2022-09-09T15:46:18.041Z,99534.97
2022-09-09T15:51:41.029Z,99534.72
2022-09-09T15:56:42.028Z,99539.75
2022-09-09T16:01:44.989Z,99545.31
2022-09-09T16:06:47.757Z,99562.03
2022-09-09T16:11:49.764Z,99568.28
2022-09-09T16:16:51.311Z,99581.84
2022-09-09T16:21:52.872Z,99583.88
2022-09-09T16:26:55.337Z,99570.53
2022-09-09T16:32:00.027Z,99589.00
2022-09-09T16:37:03.350Z,99593.38
2022-09-09T16:42:05.822Z,99560.59
2022-09-09T16:47:07.589Z,99554.38
2022-09-09T16:52:09.349Z,99553.09
2022-09-09T16:57:11.176Z,99544.94
2022-09-09T17:02:13.326Z,99573.34
2022-09-09T17:07:15.026Z,99595.63
2022-09-09T17:12:17.182Z,99605.94
2022-09-09T17:17:31.204Z,99613.97
2022-09-09T17:22:33.816Z,99617.00
2022-09-09T17:27:35.416Z,99606.16
2022-09-09T17:32:37.356Z,99626.16
2022-09-09T17:37:39.091Z,99629.78
2022-09-09T17:42:41.652Z,99635.19
2022-09-09T17:47:43.866Z,99643.19
2022-09-09T17:52:45.643Z,99656.22
2022-09-09T17:57:47.185Z,99671.00
2022-09-09T18:02:49.594Z,99662.34
2022-09-09T18:07:51.245Z,99675.00
2022-09-09T18:12:53.005Z,99692.41
2022-09-09T18:17:54.772Z,99700.22
2022-09-09T18:22:56.500Z,99717.47
2022-09-09T18:27:58.632Z,99719.19
2022-09-09T18:33:00.601Z,99714.19
2022-09-09T18:38:02.180Z,99693.16
2022-09-09T18:43:04.084Z,99686.66
2022-09-09T18:48:05.675Z,99680.91
2022-09-09T18:53:07.233Z,99683.66
2022-09-09T18:58:08.809Z,99673.75
2022-09-09T19:03:10.561Z,99690.94
2022-09-09T19:08:12.138Z,99684.25
2022-09-09T19:13:14.296Z,99681.09
2022-09-09T19:18:15.894Z,99687.28
2022-09-09T19:23:17.501Z,99686.56
2022-09-09T19:28:19.302Z,99687.56
2022-09-09T19:33:20.840Z,99685.13
2022-09-09T19:38:22.785Z,99686.16
2022-09-09T19:43:24.911Z,99687.03
2022-09-09T19:48:31.382Z,99682.94
2022-09-09T19:53:36.268Z,99683.06
2022-09-09T19:58:45.401Z,99684.13
2022-09-09T20:03:47.945Z,99689.28
2022-09-09T20:08:50.892Z,99692.00
2022-09-09T20:13:53.076Z,99694.00
2022-09-09T20:19:11.662Z,99700.34
2022-09-09T20:24:15.006Z,99711.50
2022-09-09T20:29:19.131Z,99708.22
2022-09-09T20:34:22.847Z,99704.00
2022-09-09T20:39:25.536Z,99710.13
2022-09-09T20:44:27.785Z,99710.25
2022-09-09T20:49:30.288Z,99706.16
2022-09-09T20:54:31.968Z,99721.50
2022-09-09T20:59:34.856Z,99713.06
2022-09-09T21:04:38.084Z,99721.59
2022-09-09T21:09:41.037Z,99720.06
2022-09-09T21:14:42.628Z,99724.34
2022-09-09T21:19:45.333Z,99737.25
2022-09-09T21:24:46.982Z,99728.88
2022-09-09T21:29:49.962Z,99738.41
2022-09-09T21:34:51.945Z,99741.25
2022-09-09T21:39:53.491Z,99733.84
2022-09-09T21:44:55.935Z,99746.63
2022-09-09T21:49:57.730Z,99751.81
2022-09-09T21:54:59.281Z,99741.78
2022-09-09T22:00:01.210Z,99761.28
2022-09-09T22:05:02.949Z,99745.22
2022-09-09T22:10:11.590Z,99746.94
2022-09-09T22:15:14.216Z,99752.81
2022-09-09T22:20:16.130Z,99757.03
2022-09-09T22:25:17.798Z,99770.56
2022-09-09T22:30:19.836Z,99762.97
2022-09-09T22:35:21.941Z,99752.91
2022-09-09T22:40:24.052Z,99755.38
2022-09-09T22:45:25.750Z,99751.25
2022-09-09T22:50:27.980Z,99752.97
2022-09-09T22:55:29.664Z,99755.56
2022-09-09T23:00:31.488Z,99750.47
2022-09-09T23:05:34.192Z,99740.91
2022-09-09T23:10:35.789Z,99736.03
2022-09-09T23:15:37.725Z,99736.16
2022-09-09T23:20:39.351Z,99734.34
2022-09-09T23:25:40.889Z,99729.25
2022-09-09T23:30:42.538Z,99739.50
2022-09-09T23:35:44.427Z,99749.47
2022-09-09T23:40:46.948Z,99739.25
2022-09-09T23:45:50.684Z,99734.22
2022-09-09T23:50:52.249Z,99735.97
2022-09-09T23:55:53.797Z,99744.34
